sensor_id;sensor_type;location;lat;lon;timestamp;P1;durP1;ratioP1;P2;durP2;ratioP2
37483;SDS011;23337;52.212;9.926;2022-08-11T00:00:00;2.97;;;1.90;;
37483;SDS011;23337;52.212;9.926;2022-08-11T00:02:31;3.63;;;2.40;;
37483;SDS011;23337;52.212;9.926;2022-08-11T00:05:00;3.23;;;2.57;;
37483;SDS011;23337;52.212;9.926;2022-08-11T00:07:27;3.53;;;2.20;;
37483;SDS011;23337;52.212;9.926;2022-08-11T00:09:53;3.97;;;2.23;;
37483;SDS011;23337;52.212;9.926;2022-08-11T00:12:19;4.27;;;2.07;;
37483;SDS011;23337;52.212;9.926;2022-08-11T00:14:45;2.77;;;2.10;;
37483;SDS011;23337;52.212;9.926;2022-08-11T00:17:20;3.20;;;2.10;;
37483;SDS011;23337;52.212;9.926;2022-08-11T00:19:51;2.50;;;2.10;;
37483;SDS011;23337;52.212;9.926;2022-08-11T00:22:21;3.30;;;1.93;;
37483;SDS011;23337;52.212;9.926;2022-08-11T00:24:48;4.80;;;2.17;;
37483;SDS011;23337;52.212;9.926;2022-08-11T00:27:15;3.97;;;2.10;;
37483;SDS011;23337;52.212;9.926;2022-08-11T00:29:50;3.07;;;1.97;;
37483;SDS011;23337;52.212;9.926;2022-08-11T00:32:16;4.60;;;1.90;;
37483;SDS011;23337;52.212;9.926;2022-08-11T00:34:43;2.00;;;1.70;;
37483;SDS011;23337;52.212;9.926;2022-08-11T00:37:10;3.53;;;1.90;;
37483;SDS011;23337;52.212;9.926;2022-08-11T00:39:43;2.93;;;1.90;;
37483;SDS011;23337;52.212;9.926;2022-08-11T00:44:39;2.50;;;1.77;;
37483;SDS011;23337;52.212;9.926;2022-08-11T01:05:08;3.40;;;2.00;;
37483;SDS011;23337;52.212;9.926;2022-08-11T01:18:10;3.27;;;2.23;;
37483;SDS011;23337;52.212;9.926;2022-08-11T01:40:56;3.07;;;2.00;;
37483;SDS011;23337;52.212;9.926;2022-08-11T01:43:47;2.60;;;1.97;;
37483;SDS011;23337;52.212;9.926;2022-08-11T01:49:36;2.43;;;2.10;;
37483;SDS011;23337;52.212;9.926;2022-08-11T01:57:12;2.80;;;2.07;;
37483;SDS011;23337;52.212;9.926;2022-08-11T01:59:46;4.87;;;2.43;;
37483;SDS011;23337;52.212;9.926;2022-08-11T02:04:58;4.17;;;2.37;;
37483;SDS011;23337;52.212;9.926;2022-08-11T02:15:05;6.00;;;5.40;;
37483;SDS011;23337;52.212;9.926;2022-08-11T02:20:06;5.20;;;4.70;;
37483;SDS011;23337;52.212;9.926;2022-08-11T02:23:01;8.43;;;4.93;;
37483;SDS011;23337;52.212;9.926;2022-08-11T02:31:15;6.00;;;5.03;;
37483;SDS011;23337;52.212;9.926;2022-08-11T02:37:02;5.50;;;4.90;;
37483;SDS011;23337;52.212;9.926;2022-08-11T02:52:30;5.97;;;5.37;;
37483;SDS011;23337;52.212;9.926;2022-08-11T02:55:17;6.00;;;4.90;;
37483;SDS011;23337;52.212;9.926;2022-08-11T02:57:49;5.07;;;4.07;;
37483;SDS011;23337;52.212;9.926;2022-08-11T03:00:16;7.73;;;5.10;;
37483;SDS011;23337;52.212;9.926;2022-08-11T03:13:36;7.70;;;3.70;;
37483;SDS011;23337;52.212;9.926;2022-08-11T03:19:41;4.43;;;3.80;;
37483;SDS011;23337;52.212;9.926;2022-08-11T03:22:08;4.07;;;3.60;;
37483;SDS011;23337;52.212;9.926;2022-08-11T03:24:41;5.17;;;3.93;;
37483;SDS011;23337;52.212;9.926;2022-08-11T03:30:06;4.60;;;4.10;;
37483;SDS011;23337;52.212;9.926;2022-08-11T03:32:50;5.57;;;3.97;;
37483;SDS011;23337;52.212;9.926;2022-08-11T03:35:39;5.33;;;3.83;;
37483;SDS011;23337;52.212;9.926;2022-08-11T03:38:10;5.60;;;3.87;;
37483;SDS011;23337;52.212;9.926;2022-08-11T03:40:48;7.00;;;3.63;;
37483;SDS011;23337;52.212;9.926;2022-08-11T03:46:07;4.97;;;3.43;;
37483;SDS011;23337;52.212;9.926;2022-08-11T03:48:53;5.27;;;3.40;;
37483;SDS011;23337;52.212;9.926;2022-08-11T03:51:34;5.40;;;4.63;;
37483;SDS011;23337;52.212;9.926;2022-08-11T03:57:09;6.00;;;4.23;;
37483;SDS011;23337;52.212;9.926;2022-08-11T04:07:52;5.67;;;3.77;;
37483;SDS011;23337;52.212;9.926;2022-08-11T04:24:02;5.00;;;3.63;;
37483;SDS011;23337;52.212;9.926;2022-08-11T04:31:44;4.63;;;3.57;;
37483;SDS011;23337;52.212;9.926;2022-08-11T04:54:03;4.00;;;3.60;;
37483;SDS011;23337;52.212;9.926;2022-08-11T04:56:49;6.23;;;4.13;;
37483;SDS011;23337;52.212;9.926;2022-08-11T05:13:28;4.40;;;4.00;;
37483;SDS011;23337;52.212;9.926;2022-08-11T05:16:14;5.87;;;4.27;;
37483;SDS011;23337;52.212;9.926;2022-08-11T05:19:00;8.23;;;4.20;;
37483;SDS011;23337;52.212;9.926;2022-08-11T05:21:50;5.87;;;4.07;;
37483;SDS011;23337;52.212;9.926;2022-08-11T05:24:40;6.90;;;4.43;;
37483;SDS011;23337;52.212;9.926;2022-08-11T05:27:29;4.63;;;4.23;;
37483;SDS011;23337;52.212;9.926;2022-08-11T05:30:15;7.10;;;3.20;;
37483;SDS011;23337;52.212;9.926;2022-08-11T05:33:08;3.90;;;3.33;;
37483;SDS011;23337;52.212;9.926;2022-08-11T05:35:59;6.40;;;3.47;;
37483;SDS011;23337;52.212;9.926;2022-08-11T05:38:27;4.60;;;3.70;;
37483;SDS011;23337;52.212;9.926;2022-08-11T05:41:13;6.47;;;3.60;;
37483;SDS011;23337;52.212;9.926;2022-08-11T05:44:00;5.67;;;3.53;;
37483;SDS011;23337;52.212;9.926;2022-08-11T05:46:46;6.03;;;3.13;;
37483;SDS011;23337;52.212;9.926;2022-08-11T05:49:32;3.23;;;2.87;;
37483;SDS011;23337;52.212;9.926;2022-08-11T05:52:26;6.73;;;3.70;;
37483;SDS011;23337;52.212;9.926;2022-08-11T05:55:12;6.80;;;3.57;;
37483;SDS011;23337;52.212;9.926;2022-08-11T05:57:58;3.57;;;3.03;;
37483;SDS011;23337;52.212;9.926;2022-08-11T06:00:25;5.23;;;3.70;;
37483;SDS011;23337;52.212;9.926;2022-08-11T06:02:55;5.43;;;3.30;;
37483;SDS011;23337;52.212;9.926;2022-08-11T06:05:21;7.83;;;3.93;;
37483;SDS011;23337;52.212;9.926;2022-08-11T06:07:48;4.80;;;3.20;;
37483;SDS011;23337;52.212;9.926;2022-08-11T06:10:23;8.17;;;3.63;;
37483;SDS011;23337;52.212;9.926;2022-08-11T06:12:51;6.97;;;3.50;;
37483;SDS011;23337;52.212;9.926;2022-08-11T06:15:18;10.50;;;4.03;;
37483;SDS011;23337;52.212;9.926;2022-08-11T06:17:45;8.57;;;4.35;;
37483;SDS011;23337;52.212;9.926;2022-08-11T06:20:12;8.67;;;4.20;;
37483;SDS011;23337;52.212;9.926;2022-08-11T06:22:40;11.23;;;4.63;;
37483;SDS011;23337;52.212;9.926;2022-08-11T06:25:07;13.63;;;5.07;;
37483;SDS011;23337;52.212;9.926;2022-08-11T06:27:34;12.77;;;4.30;;
37483;SDS011;23337;52.212;9.926;2022-08-11T06:30:01;11.30;;;5.67;;
37483;SDS011;23337;52.212;9.926;2022-08-11T06:32:28;9.27;;;4.53;;
37483;SDS011;23337;52.212;9.926;2022-08-11T06:40:14;9.83;;;3.83;;
37483;SDS011;23337;52.212;9.926;2022-08-11T06:48:00;8.23;;;3.80;;
37483;SDS011;23337;52.212;9.926;2022-08-11T06:50:27;8.63;;;4.07;;
37483;SDS011;23337;52.212;9.926;2022-08-11T06:53:14;6.40;;;3.37;;
37483;SDS011;23337;52.212;9.926;2022-08-11T06:55:40;8.00;;;3.40;;
37483;SDS011;23337;52.212;9.926;2022-08-11T06:58:27;8.63;;;3.27;;
37483;SDS011;23337;52.212;9.926;2022-08-11T07:01:14;4.70;;;2.80;;
37483;SDS011;23337;52.212;9.926;2022-08-11T07:03:45;10.50;;;3.20;;
37483;SDS011;23337;52.212;9.926;2022-08-11T07:06:27;8.13;;;3.10;;
37483;SDS011;23337;52.212;9.926;2022-08-11T07:12:11;5.40;;;2.60;;
37483;SDS011;23337;52.212;9.926;2022-08-11T07:15:01;7.13;;;3.40;;
37483;SDS011;23337;52.212;9.926;2022-08-11T07:17:48;7.27;;;3.13;;
37483;SDS011;23337;52.212;9.926;2022-08-11T07:20:35;4.70;;;2.93;;
37483;SDS011;23337;52.212;9.926;2022-08-11T07:23:21;4.33;;;2.83;;
37483;SDS011;23337;52.212;9.926;2022-08-11T07:26:06;5.87;;;2.93;;
37483;SDS011;23337;52.212;9.926;2022-08-11T07:28:52;5.53;;;3.30;;
37483;SDS011;23337;52.212;9.926;2022-08-11T07:33:49;4.77;;;2.63;;
37483;SDS011;23337;52.212;9.926;2022-08-11T07:36:16;5.97;;;2.90;;
37483;SDS011;23337;52.212;9.926;2022-08-11T07:38:48;4.17;;;2.97;;
37483;SDS011;23337;52.212;9.926;2022-08-11T07:41:17;5.20;;;2.93;;
37483;SDS011;23337;52.212;9.926;2022-08-11T07:43:44;4.57;;;3.37;;
37483;SDS011;23337;52.212;9.926;2022-08-11T07:46:14;7.63;;;2.90;;
37483;SDS011;23337;52.212;9.926;2022-08-11T07:49:00;6.50;;;3.00;;
37483;SDS011;23337;52.212;9.926;2022-08-11T07:51:46;5.50;;;2.67;;
37483;SDS011;23337;52.212;9.926;2022-08-11T07:54:31;5.03;;;2.87;;
37483;SDS011;23337;52.212;9.926;2022-08-11T07:56:57;4.73;;;3.20;;
37483;SDS011;23337;52.212;9.926;2022-08-11T07:59:23;5.33;;;2.70;;
37483;SDS011;23337;52.212;9.926;2022-08-11T08:02:08;5.87;;;3.37;;
37483;SDS011;23337;52.212;9.926;2022-08-11T08:04:54;5.67;;;2.87;;
37483;SDS011;23337;52.212;9.926;2022-08-11T08:07:39;6.03;;;3.13;;
37483;SDS011;23337;52.212;9.926;2022-08-11T08:10:24;6.77;;;2.87;;
37483;SDS011;23337;52.212;9.926;2022-08-11T08:13:09;7.13;;;3.20;;
37483;SDS011;23337;52.212;9.926;2022-08-11T08:15:53;4.53;;;2.80;;
37483;SDS011;23337;52.212;9.926;2022-08-11T08:18:39;7.23;;;3.17;;
37483;SDS011;23337;52.212;9.926;2022-08-11T08:21:05;7.50;;;4.50;;
37483;SDS011;23337;52.212;9.926;2022-08-11T08:23:39;6.13;;;2.70;;
37483;SDS011;23337;52.212;9.926;2022-08-11T08:26:06;5.97;;;3.40;;
37483;SDS011;23337;52.212;9.926;2022-08-11T08:28:53;4.23;;;2.90;;
37483;SDS011;23337;52.212;9.926;2022-08-11T08:31:40;6.87;;;2.97;;
37483;SDS011;23337;52.212;9.926;2022-08-11T08:34:06;8.57;;;3.47;;
37483;SDS011;23337;52.212;9.926;2022-08-11T08:36:32;6.47;;;2.80;;
37483;SDS011;23337;52.212;9.926;2022-08-11T08:38:58;6.10;;;3.00;;
37483;SDS011;23337;52.212;9.926;2022-08-11T08:41:28;6.23;;;2.80;;
37483;SDS011;23337;52.212;9.926;2022-08-11T08:43:56;6.20;;;2.50;;
37483;SDS011;23337;52.212;9.926;2022-08-11T08:46:24;4.93;;;2.83;;
37483;SDS011;23337;52.212;9.926;2022-08-11T08:48:52;10.33;;;2.67;;
37483;SDS011;23337;52.212;9.926;2022-08-11T08:51:19;4.10;;;2.10;;
37483;SDS011;23337;52.212;9.926;2022-08-11T08:54:06;4.30;;;2.40;;
37483;SDS011;23337;52.212;9.926;2022-08-11T08:56:32;6.20;;;2.40;;
37483;SDS011;23337;52.212;9.926;2022-08-11T08:59:00;4.30;;;2.20;;
37483;SDS011;23337;52.212;9.926;2022-08-11T09:01:37;4.20;;;2.30;;
37483;SDS011;23337;52.212;9.926;2022-08-11T09:04:08;2.60;;;1.90;;
37483;SDS011;23337;52.212;9.926;2022-08-11T09:06:38;4.93;;;2.40;;
37483;SDS011;23337;52.212;9.926;2022-08-11T09:09:05;3.10;;;1.90;;
37483;SDS011;23337;52.212;9.926;2022-08-11T09:11:36;6.17;;;2.90;;
37483;SDS011;23337;52.212;9.926;2022-08-11T09:14:15;6.37;;;2.23;;
37483;SDS011;23337;52.212;9.926;2022-08-11T09:16:41;3.43;;;2.23;;
37483;SDS011;23337;52.212;9.926;2022-08-11T09:19:08;3.07;;;2.30;;
37483;SDS011;23337;52.212;9.926;2022-08-11T09:21:34;3.10;;;2.30;;
37483;SDS011;23337;52.212;9.926;2022-08-11T09:24:03;4.90;;;2.17;;
37483;SDS011;23337;52.212;9.926;2022-08-11T09:26:48;3.47;;;2.47;;
37483;SDS011;23337;52.212;9.926;2022-08-11T09:29:23;3.40;;;2.07;;
37483;SDS011;23337;52.212;9.926;2022-08-11T09:31:51;5.00;;;2.17;;
37483;SDS011;23337;52.212;9.926;2022-08-11T09:34:17;3.90;;;2.43;;
37483;SDS011;23337;52.212;9.926;2022-08-11T09:36:44;3.30;;;2.10;;
37483;SDS011;23337;52.212;9.926;2022-08-11T09:39:29;4.40;;;2.43;;
37483;SDS011;23337;52.212;9.926;2022-08-11T09:42:14;3.30;;;2.80;;
37483;SDS011;23337;52.212;9.926;2022-08-11T09:44:40;4.03;;;2.00;;
37483;SDS011;23337;52.212;9.926;2022-08-11T09:47:20;3.33;;;2.00;;
37483;SDS011;23337;52.212;9.926;2022-08-11T09:49:47;7.33;;;2.10;;
37483;SDS011;23337;52.212;9.926;2022-08-11T09:52:15;5.00;;;1.77;;
37483;SDS011;23337;52.212;9.926;2022-08-11T09:54:43;3.33;;;1.73;;
37483;SDS011;23337;52.212;9.926;2022-08-11T09:57:09;2.27;;;1.73;;
37483;SDS011;23337;52.212;9.926;2022-08-11T09:59:54;4.10;;;2.13;;
37483;SDS011;23337;52.212;9.926;2022-08-11T10:02:24;3.97;;;2.13;;
37483;SDS011;23337;52.212;9.926;2022-08-11T10:04:51;3.43;;;1.80;;
37483;SDS011;23337;52.212;9.926;2022-08-11T10:07:38;2.70;;;2.20;;
37483;SDS011;23337;52.212;9.926;2022-08-11T10:10:05;3.17;;;2.10;;
37483;SDS011;23337;52.212;9.926;2022-08-11T10:12:33;2.40;;;1.83;;
37483;SDS011;23337;52.212;9.926;2022-08-11T10:15:09;3.93;;;2.10;;
37483;SDS011;23337;52.212;9.926;2022-08-11T10:18:03;3.07;;;1.83;;
37483;SDS011;23337;52.212;9.926;2022-08-11T10:20:48;3.23;;;2.00;;
37483;SDS011;23337;52.212;9.926;2022-08-11T10:23:14;2.70;;;1.77;;
37483;SDS011;23337;52.212;9.926;2022-08-11T10:25:59;2.70;;;1.77;;
37483;SDS011;23337;52.212;9.926;2022-08-11T10:28:45;1.80;;;1.47;;
37483;SDS011;23337;52.212;9.926;2022-08-11T10:31:12;2.43;;;1.70;;
37483;SDS011;23337;52.212;9.926;2022-08-11T10:33:57;3.00;;;1.90;;
37483;SDS011;23337;52.212;9.926;2022-08-11T10:36:27;2.87;;;2.30;;
37483;SDS011;23337;52.212;9.926;2022-08-11T10:38:54;3.50;;;1.80;;
37483;SDS011;23337;52.212;9.926;2022-08-11T10:41:20;2.73;;;1.90;;
37483;SDS011;23337;52.212;9.926;2022-08-11T10:44:06;2.30;;;1.90;;
37483;SDS011;23337;52.212;9.926;2022-08-11T10:46:34;5.60;;;2.27;;
37483;SDS011;23337;52.212;9.926;2022-08-11T10:49:19;3.13;;;1.50;;
37483;SDS011;23337;52.212;9.926;2022-08-11T10:51:45;2.37;;;1.93;;
37483;SDS011;23337;52.212;9.926;2022-08-11T10:54:31;3.10;;;1.80;;
37483;SDS011;23337;52.212;9.926;2022-08-11T10:57:15;1.70;;;1.60;;
37483;SDS011;23337;52.212;9.926;2022-08-11T11:00:00;3.80;;;1.73;;
37483;SDS011;23337;52.212;9.926;2022-08-11T11:02:27;1.65;;;1.50;;
37483;SDS011;23337;52.212;9.926;2022-08-11T11:07:23;2.83;;;1.60;;
37483;SDS011;23337;52.212;9.926;2022-08-11T11:09:53;2.05;;;1.40;;
37483;SDS011;23337;52.212;9.926;2022-08-11T11:15:08;3.75;;;1.70;;
37483;SDS011;23337;52.212;9.926;2022-08-11T11:17:55;2.38;;;1.50;;
37483;SDS011;23337;52.212;9.926;2022-08-11T11:20:37;4.97;;;2.63;;
37483;SDS011;23337;52.212;9.926;2022-08-11T11:23:15;5.18;;;2.15;;
37483;SDS011;23337;52.212;9.926;2022-08-11T11:25:52;3.88;;;1.90;;
37483;SDS011;23337;52.212;9.926;2022-08-11T11:31:12;12.05;;;3.75;;
37483;SDS011;23337;52.212;9.926;2022-08-11T11:39:04;3.75;;;2.05;;
37483;SDS011;23337;52.212;9.926;2022-08-11T11:41:31;2.65;;;1.60;;
37483;SDS011;23337;52.212;9.926;2022-08-11T11:43:57;3.80;;;1.92;;
37483;SDS011;23337;52.212;9.926;2022-08-11T11:46:23;3.00;;;1.80;;
37483;SDS011;23337;52.212;9.926;2022-08-11T11:48:51;2.63;;;1.55;;
37483;SDS011;23337;52.212;9.926;2022-08-11T11:51:17;5.55;;;1.80;;
37483;SDS011;23337;52.212;9.926;2022-08-11T11:53:44;7.72;;;2.03;;
37483;SDS011;23337;52.212;9.926;2022-08-11T11:56:11;4.82;;;2.13;;
37483;SDS011;23337;52.212;9.926;2022-08-11T11:58:39;4.25;;;2.65;;
37483;SDS011;23337;52.212;9.926;2022-08-11T12:01:24;4.30;;;2.17;;
37483;SDS011;23337;52.212;9.926;2022-08-11T12:03:52;4.82;;;2.25;;
37483;SDS011;23337;52.212;9.926;2022-08-11T12:06:20;2.05;;;1.58;;
37483;SDS011;23337;52.212;9.926;2022-08-11T12:08:47;3.38;;;1.95;;
37483;SDS011;23337;52.212;9.926;2022-08-11T12:11:14;3.35;;;1.80;;
37483;SDS011;23337;52.212;9.926;2022-08-11T12:14:00;1.92;;;1.73;;
37483;SDS011;23337;52.212;9.926;2022-08-11T12:16:26;3.67;;;1.65;;
37483;SDS011;23337;52.212;9.926;2022-08-11T12:18:57;4.60;;;1.70;;
37483;SDS011;23337;52.212;9.926;2022-08-11T12:21:23;2.55;;;1.75;;
37483;SDS011;23337;52.212;9.926;2022-08-11T12:23:50;4.35;;;1.83;;
37483;SDS011;23337;52.212;9.926;2022-08-11T12:26:35;2.97;;;2.22;;
37483;SDS011;23337;52.212;9.926;2022-08-11T12:29:23;2.30;;;1.63;;
37483;SDS011;23337;52.212;9.926;2022-08-11T12:31:51;3.08;;;2.03;;
37483;SDS011;23337;52.212;9.926;2022-08-11T12:34:18;2.70;;;1.95;;
37483;SDS011;23337;52.212;9.926;2022-08-11T12:36:52;3.28;;;1.95;;
37483;SDS011;23337;52.212;9.926;2022-08-11T12:39:20;1.73;;;1.63;;
37483;SDS011;23337;52.212;9.926;2022-08-11T12:42:10;8.43;;;2.05;;
37483;SDS011;23337;52.212;9.926;2022-08-11T12:44:57;4.05;;;1.90;;
37483;SDS011;23337;52.212;9.926;2022-08-11T12:47:46;3.22;;;1.77;;
37483;SDS011;23337;52.212;9.926;2022-08-11T12:50:32;2.00;;;1.50;;
37483;SDS011;23337;52.212;9.926;2022-08-11T12:53:18;3.28;;;1.75;;
37483;SDS011;23337;52.212;9.926;2022-08-11T12:55:46;3.08;;;1.83;;
37483;SDS011;23337;52.212;9.926;2022-08-11T12:58:32;7.03;;;1.63;;
37483;SDS011;23337;52.212;9.926;2022-08-11T13:00:58;3.35;;;1.80;;
37483;SDS011;23337;52.212;9.926;2022-08-11T13:03:42;2.88;;;1.85;;
37483;SDS011;23337;52.212;9.926;2022-08-11T13:06:27;3.63;;;1.65;;
37483;SDS011;23337;52.212;9.926;2022-08-11T13:08:53;1.58;;;1.48;;
37483;SDS011;23337;52.212;9.926;2022-08-11T13:11:21;2.70;;;1.70;;
37483;SDS011;23337;52.212;9.926;2022-08-11T13:14:06;2.30;;;1.70;;
37483;SDS011;23337;52.212;9.926;2022-08-11T13:16:33;2.30;;;1.90;;
37483;SDS011;23337;52.212;9.926;2022-08-11T13:19:20;3.40;;;2.28;;
37483;SDS011;23337;52.212;9.926;2022-08-11T13:21:49;2.72;;;2.25;;
37483;SDS011;23337;52.212;9.926;2022-08-11T13:24:16;3.13;;;1.75;;
37483;SDS011;23337;52.212;9.926;2022-08-11T13:26:43;1.83;;;1.55;;
37483;SDS011;23337;52.212;9.926;2022-08-11T13:29:09;4.88;;;1.58;;
37483;SDS011;23337;52.212;9.926;2022-08-11T13:31:36;2.03;;;1.92;;
37483;SDS011;23337;52.212;9.926;2022-08-11T13:34:02;3.38;;;1.88;;
37483;SDS011;23337;52.212;9.926;2022-08-11T13:36:32;6.68;;;2.17;;
37483;SDS011;23337;52.212;9.926;2022-08-11T13:38:58;3.70;;;1.83;;
37483;SDS011;23337;52.212;9.926;2022-08-11T13:41:25;1.60;;;1.50;;
37483;SDS011;23337;52.212;9.926;2022-08-11T13:44:08;1.98;;;1.55;;
37483;SDS011;23337;52.212;9.926;2022-08-11T13:46:36;2.67;;;1.60;;
37483;SDS011;23337;52.212;9.926;2022-08-11T13:49:02;3.00;;;1.58;;
37483;SDS011;23337;52.212;9.926;2022-08-11T13:51:28;4.95;;;1.95;;
37483;SDS011;23337;52.212;9.926;2022-08-11T13:53:56;5.05;;;2.10;;
37483;SDS011;23337;52.212;9.926;2022-08-11T13:56:23;3.15;;;1.75;;
37483;SDS011;23337;52.212;9.926;2022-08-11T13:58:49;2.83;;;1.70;;
37483;SDS011;23337;52.212;9.926;2022-08-11T14:01:17;3.72;;;1.95;;
37483;SDS011;23337;52.212;9.926;2022-08-11T14:03:43;2.80;;;1.98;;
37483;SDS011;23337;52.212;9.926;2022-08-11T14:06:11;1.98;;;1.75;;
37483;SDS011;23337;52.212;9.926;2022-08-11T14:08:38;2.60;;;1.75;;
37483;SDS011;23337;52.212;9.926;2022-08-11T14:11:05;2.83;;;1.48;;
37483;SDS011;23337;52.212;9.926;2022-08-11T14:13:51;4.60;;;1.70;;
37483;SDS011;23337;52.212;9.926;2022-08-11T14:16:30;2.13;;;1.52;;
37483;SDS011;23337;52.212;9.926;2022-08-11T14:18:59;5.90;;;1.98;;
37483;SDS011;23337;52.212;9.926;2022-08-11T14:21:25;4.72;;;2.15;;
37483;SDS011;23337;52.212;9.926;2022-08-11T14:24:11;3.17;;;1.75;;
37483;SDS011;23337;52.212;9.926;2022-08-11T14:26:37;1.98;;;1.70;;
37483;SDS011;23337;52.212;9.926;2022-08-11T14:29:08;2.20;;;2.00;;
37483;SDS011;23337;52.212;9.926;2022-08-11T14:31:38;4.15;;;1.80;;
37483;SDS011;23337;52.212;9.926;2022-08-11T14:34:05;5.43;;;2.13;;
37483;SDS011;23337;52.212;9.926;2022-08-11T14:36:33;3.03;;;1.90;;
37483;SDS011;23337;52.212;9.926;2022-08-11T14:39:01;2.05;;;1.80;;
37483;SDS011;23337;52.212;9.926;2022-08-11T14:41:28;2.15;;;1.95;;
37483;SDS011;23337;52.212;9.926;2022-08-11T14:44:13;7.07;;;2.50;;
37483;SDS011;23337;52.212;9.926;2022-08-11T14:46:58;3.97;;;1.80;;
37483;SDS011;23337;52.212;9.926;2022-08-11T14:49:31;1.67;;;1.58;;
37483;SDS011;23337;52.212;9.926;2022-08-11T14:51:59;3.10;;;2.10;;
37483;SDS011;23337;52.212;9.926;2022-08-11T14:54:28;3.30;;;1.92;;
37483;SDS011;23337;52.212;9.926;2022-08-11T14:57:13;3.75;;;1.70;;
37483;SDS011;23337;52.212;9.926;2022-08-11T14:59:40;4.93;;;1.83;;
37483;SDS011;23337;52.212;9.926;2022-08-11T15:02:07;3.50;;;1.88;;
37483;SDS011;23337;52.212;9.926;2022-08-11T15:04:51;2.75;;;1.45;;
37483;SDS011;23337;52.212;9.926;2022-08-11T15:07:20;10.60;;;3.10;;
37483;SDS011;23337;52.212;9.926;2022-08-11T15:09:53;9.60;;;3.47;;
37483;SDS011;23337;52.212;9.926;2022-08-11T15:12:19;4.57;;;2.10;;
37483;SDS011;23337;52.212;9.926;2022-08-11T15:14:46;3.88;;;1.77;;
37483;SDS011;23337;52.212;9.926;2022-08-11T15:17:31;5.75;;;1.67;;
37483;SDS011;23337;52.212;9.926;2022-08-11T15:20:03;2.92;;;1.50;;
37483;SDS011;23337;52.212;9.926;2022-08-11T15:22:49;1.83;;;1.50;;
37483;SDS011;23337;52.212;9.926;2022-08-11T15:25:34;2.85;;;1.70;;
37483;SDS011;23337;52.212;9.926;2022-08-11T15:28:01;2.22;;;1.38;;
37483;SDS011;23337;52.212;9.926;2022-08-11T15:30:47;2.05;;;1.58;;
37483;SDS011;23337;52.212;9.926;2022-08-11T15:33:32;2.13;;;1.60;;
37483;SDS011;23337;52.212;9.926;2022-08-11T15:36:19;2.75;;;1.67;;
37483;SDS011;23337;52.212;9.926;2022-08-11T15:44:37;5.28;;;1.65;;
37483;SDS011;23337;52.212;9.926;2022-08-11T15:47:25;3.15;;;1.52;;
37483;SDS011;23337;52.212;9.926;2022-08-11T15:49:52;3.03;;;1.55;;
37483;SDS011;23337;52.212;9.926;2022-08-11T15:52:23;1.70;;;1.60;;
37483;SDS011;23337;52.212;9.926;2022-08-11T15:54:50;2.38;;;1.83;;
37483;SDS011;23337;52.212;9.926;2022-08-11T15:57:16;3.25;;;1.60;;
37483;SDS011;23337;52.212;9.926;2022-08-11T16:00:03;3.67;;;2.05;;
37483;SDS011;23337;52.212;9.926;2022-08-11T16:02:48;1.90;;;1.30;;
37483;SDS011;23337;52.212;9.926;2022-08-11T16:05:34;2.58;;;1.50;;
37483;SDS011;23337;52.212;9.926;2022-08-11T16:08:01;2.58;;;1.40;;
37483;SDS011;23337;52.212;9.926;2022-08-11T16:10:27;1.88;;;1.40;;
37483;SDS011;23337;52.212;9.926;2022-08-11T16:12:58;2.25;;;1.40;;
37483;SDS011;23337;52.212;9.926;2022-08-11T16:15:27;2.88;;;1.58;;
37483;SDS011;23337;52.212;9.926;2022-08-11T16:18:13;2.90;;;1.60;;
37483;SDS011;23337;52.212;9.926;2022-08-11T16:20:40;2.08;;;1.60;;
37483;SDS011;23337;52.212;9.926;2022-08-11T16:23:08;2.85;;;1.67;;
37483;SDS011;23337;52.212;9.926;2022-08-11T16:25:34;2.50;;;1.63;;
37483;SDS011;23337;52.212;9.926;2022-08-11T16:28:03;2.13;;;1.40;;
37483;SDS011;23337;52.212;9.926;2022-08-11T16:30:31;2.72;;;1.35;;
37483;SDS011;23337;52.212;9.926;2022-08-11T16:32:57;3.83;;;1.52;;
37483;SDS011;23337;52.212;9.926;2022-08-11T16:35:23;1.77;;;1.42;;
37483;SDS011;23337;52.212;9.926;2022-08-11T16:38:09;2.28;;;1.10;;
37483;SDS011;23337;52.212;9.926;2022-08-11T16:40:55;1.80;;;1.55;;
37483;SDS011;23337;52.212;9.926;2022-08-11T16:43:22;1.80;;;1.30;;
37483;SDS011;23337;52.212;9.926;2022-08-11T16:46:07;2.00;;;1.30;;
37483;SDS011;23337;52.212;9.926;2022-08-11T16:48:52;2.08;;;1.50;;
37483;SDS011;23337;52.212;9.926;2022-08-11T16:51:19;1.90;;;1.48;;
37483;SDS011;23337;52.212;9.926;2022-08-11T16:53:45;1.48;;;1.38;;
37483;SDS011;23337;52.212;9.926;2022-08-11T16:56:13;2.25;;;1.30;;
37483;SDS011;23337;52.212;9.926;2022-08-11T16:58:41;2.08;;;1.30;;
37483;SDS011;23337;52.212;9.926;2022-08-11T17:01:27;2.17;;;1.77;;
37483;SDS011;23337;52.212;9.926;2022-08-11T17:03:55;2.80;;;1.50;;
37483;SDS011;23337;52.212;9.926;2022-08-11T17:06:42;1.65;;;1.55;;
37483;SDS011;23337;52.212;9.926;2022-08-11T17:09:28;2.45;;;1.20;;
37483;SDS011;23337;52.212;9.926;2022-08-11T17:12:13;2.10;;;1.38;;
37483;SDS011;23337;52.212;9.926;2022-08-11T17:14:59;2.35;;;1.48;;
37483;SDS011;23337;52.212;9.926;2022-08-11T17:17:27;2.03;;;1.38;;
37483;SDS011;23337;52.212;9.926;2022-08-11T17:19:56;2.30;;;1.48;;
37483;SDS011;23337;52.212;9.926;2022-08-11T17:22:23;1.25;;;1.15;;
37483;SDS011;23337;52.212;9.926;2022-08-11T17:25:09;1.45;;;1.35;;
37483;SDS011;23337;52.212;9.926;2022-08-11T17:27:35;2.10;;;1.90;;
37483;SDS011;23337;52.212;9.926;2022-08-11T17:30:04;2.17;;;1.73;;
37483;SDS011;23337;52.212;9.926;2022-08-11T17:32:35;1.75;;;1.55;;
37483;SDS011;23337;52.212;9.926;2022-08-11T17:35:21;4.15;;;1.70;;
37483;SDS011;23337;52.212;9.926;2022-08-11T17:37:58;2.22;;;1.40;;
37483;SDS011;23337;52.212;9.926;2022-08-11T17:40:24;1.70;;;1.30;;
37483;SDS011;23337;52.212;9.926;2022-08-11T17:42:51;4.55;;;1.70;;
37483;SDS011;23337;52.212;9.926;2022-08-11T17:45:37;2.35;;;1.60;;
37483;SDS011;23337;52.212;9.926;2022-08-11T17:48:23;3.00;;;1.90;;
37483;SDS011;23337;52.212;9.926;2022-08-11T17:51:02;3.13;;;1.50;;
37483;SDS011;23337;52.212;9.926;2022-08-11T17:53:31;2.75;;;1.80;;
37483;SDS011;23337;52.212;9.926;2022-08-11T17:56:18;2.90;;;1.60;;
37483;SDS011;23337;52.212;9.926;2022-08-11T17:59:04;2.35;;;1.55;;
37483;SDS011;23337;52.212;9.926;2022-08-11T18:01:50;1.85;;;1.40;;
37483;SDS011;23337;52.212;9.926;2022-08-11T18:04:17;2.38;;;1.67;;
37483;SDS011;23337;52.212;9.926;2022-08-11T18:06:43;1.98;;;1.48;;
37483;SDS011;23337;52.212;9.926;2022-08-11T18:09:18;1.50;;;1.40;;
37483;SDS011;23337;52.212;9.926;2022-08-11T18:12:03;4.22;;;2.03;;
37483;SDS011;23337;52.212;9.926;2022-08-11T18:14:50;2.08;;;1.88;;
37483;SDS011;23337;52.212;9.926;2022-08-11T18:17:36;3.00;;;1.80;;
37483;SDS011;23337;52.212;9.926;2022-08-11T18:20:21;3.42;;;1.60;;
37483;SDS011;23337;52.212;9.926;2022-08-11T18:23:08;2.78;;;1.52;;
37483;SDS011;23337;52.212;9.926;2022-08-11T18:25:54;3.45;;;1.60;;
37483;SDS011;23337;52.212;9.926;2022-08-11T18:28:42;1.98;;;1.67;;
37483;SDS011;23337;52.212;9.926;2022-08-11T18:31:27;2.15;;;1.88;;
37483;SDS011;23337;52.212;9.926;2022-08-11T18:34:13;4.93;;;1.90;;
37483;SDS011;23337;52.212;9.926;2022-08-11T18:37:03;3.53;;;1.98;;
37483;SDS011;23337;52.212;9.926;2022-08-11T18:39:52;4.30;;;2.13;;
37483;SDS011;23337;52.212;9.926;2022-08-11T18:42:39;3.60;;;2.25;;
37483;SDS011;23337;52.212;9.926;2022-08-11T18:45:24;7.32;;;3.00;;
37483;SDS011;23337;52.212;9.926;2022-08-11T18:48:10;3.08;;;2.30;;
37483;SDS011;23337;52.212;9.926;2022-08-11T18:50:58;4.00;;;2.13;;
37483;SDS011;23337;52.212;9.926;2022-08-11T18:53:46;2.67;;;2.17;;
37483;SDS011;23337;52.212;9.926;2022-08-11T18:56:32;3.78;;;2.70;;
37483;SDS011;23337;52.212;9.926;2022-08-11T18:59:18;2.65;;;1.95;;
37483;SDS011;23337;52.212;9.926;2022-08-11T19:02:03;4.43;;;1.92;;
37483;SDS011;23337;52.212;9.926;2022-08-11T19:04:49;3.50;;;1.70;;
37483;SDS011;23337;52.212;9.926;2022-08-11T19:07:34;3.65;;;1.50;;